sensor_id;sensor_type;location;lat;lon;timestamp;P1;durP1;ratioP1;P2;durP2;ratioP2
15006;SDS011;7599;50.748;13.142;2023-03-01T00:01:12;2.33;;;1.08;;
15006;SDS011;7599;50.748;13.142;2023-03-01T00:04:15;2.65;;;1.40;;
15006;SDS011;7599;50.748;13.142;2023-03-01T00:07:18;4.40;;;1.65;;
15006;SDS011;7599;50.748;13.142;2023-03-01T00:10:20;2.83;;;1.40;;
15006;SDS011;7599;50.748;13.142;2023-03-01T00:13:23;4.07;;;1.52;;
15006;SDS011;7599;50.748;13.142;2023-03-01T00:16:28;3.05;;;1.48;;
15006;SDS011;7599;50.748;13.142;2023-03-01T00:19:32;2.45;;;1.23;;
15006;SDS011;7599;50.748;13.142;2023-03-01T00:22:34;2.95;;;1.30;;
15006;SDS011;7599;50.748;13.142;2023-03-01T00:25:40;3.10;;;1.33;;
15006;SDS011;7599;50.748;13.142;2023-03-01T00:28:43;3.65;;;1.33;;
15006;SDS011;7599;50.748;13.142;2023-03-01T00:31:48;3.65;;;1.30;;
15006;SDS011;7599;50.748;13.142;2023-03-01T00:34:50;2.72;;;1.33;;
15006;SDS011;7599;50.748;13.142;2023-03-01T00:37:56;2.65;;;1.30;;
15006;SDS011;7599;50.748;13.142;2023-03-01T00:41:02;3.67;;;1.38;;
15006;SDS011;7599;50.748;13.142;2023-03-01T00:44:05;2.70;;;1.45;;
15006;SDS011;7599;50.748;13.142;2023-03-01T00:47:09;3.45;;;1.30;;
15006;SDS011;7599;50.748;13.142;2023-03-01T00:50:11;2.22;;;1.13;;
15006;SDS011;7599;50.748;13.142;2023-03-01T00:53:14;2.47;;;1.30;;
15006;SDS011;7599;50.748;13.142;2023-03-01T00:56:16;2.40;;;1.10;;
15006;SDS011;7599;50.748;13.142;2023-03-01T00:59:19;2.38;;;1.27;;
15006;SDS011;7599;50.748;13.142;2023-03-01T01:02:22;2.42;;;1.10;;
15006;SDS011;7599;50.748;13.142;2023-03-01T01:05:25;2.70;;;1.50;;
15006;SDS011;7599;50.748;13.142;2023-03-01T01:08:28;3.20;;;1.48;;
15006;SDS011;7599;50.748;13.142;2023-03-01T01:11:31;3.22;;;1.42;;
15006;SDS011;7599;50.748;13.142;2023-03-01T01:14:33;3.35;;;1.33;;
15006;SDS011;7599;50.748;13.142;2023-03-01T01:17:38;3.05;;;1.30;;
15006;SDS011;7599;50.748;13.142;2023-03-01T01:20:40;2.45;;;1.27;;
15006;SDS011;7599;50.748;13.142;2023-03-01T01:23:43;3.25;;;1.45;;
15006;SDS011;7599;50.748;13.142;2023-03-01T01:26:46;2.38;;;1.48;;
15006;SDS011;7599;50.748;13.142;2023-03-01T01:29:49;3.72;;;1.77;;
15006;SDS011;7599;50.748;13.142;2023-03-01T01:32:52;3.03;;;1.38;;
15006;SDS011;7599;50.748;13.142;2023-03-01T01:35:56;3.40;;;1.55;;
15006;SDS011;7599;50.748;13.142;2023-03-01T01:38:58;2.95;;;1.20;;
15006;SDS011;7599;50.748;13.142;2023-03-01T01:42:01;2.45;;;1.23;;
15006;SDS011;7599;50.748;13.142;2023-03-01T01:48:34;2.83;;;1.30;;
15006;SDS011;7599;50.748;13.142;2023-03-01T01:51:43;3.28;;;1.13;;
15006;SDS011;7599;50.748;13.142;2023-03-01T01:54:50;3.50;;;1.17;;
15006;SDS011;7599;50.748;13.142;2023-03-01T01:57:56;3.20;;;1.42;;
15006;SDS011;7599;50.748;13.142;2023-03-01T02:01:01;3.28;;;1.27;;
15006;SDS011;7599;50.748;13.142;2023-03-01T02:04:06;3.03;;;1.35;;
15006;SDS011;7599;50.748;13.142;2023-03-01T02:07:09;1.85;;;1.17;;
15006;SDS011;7599;50.748;13.142;2023-03-01T02:10:16;3.95;;;1.40;;
15006;SDS011;7599;50.748;13.142;2023-03-01T02:13:19;2.28;;;1.17;;
15006;SDS011;7599;50.748;13.142;2023-03-01T02:16:22;2.72;;;1.13;;
15006;SDS011;7599;50.748;13.142;2023-03-01T02:19:30;3.38;;;1.52;;
15006;SDS011;7599;50.748;13.142;2023-03-01T02:22:40;3.30;;;1.63;;
15006;SDS011;7599;50.748;13.142;2023-03-01T02:25:47;2.20;;;1.17;;
15006;SDS011;7599;50.748;13.142;2023-03-01T02:28:55;3.42;;;1.20;;
15006;SDS011;7599;50.748;13.142;2023-03-01T02:31:59;2.88;;;1.30;;
15006;SDS011;7599;50.748;13.142;2023-03-01T02:35:04;2.22;;;1.10;;
15006;SDS011;7599;50.748;13.142;2023-03-01T02:41:11;2.05;;;1.30;;
15006;SDS011;7599;50.748;13.142;2023-03-01T02:44:18;3.35;;;1.75;;
15006;SDS011;7599;50.748;13.142;2023-03-01T02:47:21;2.55;;;1.17;;
15006;SDS011;7599;50.748;13.142;2023-03-01T02:50:26;3.13;;;1.23;;
15006;SDS011;7599;50.748;13.142;2023-03-01T02:53:48;2.92;;;1.55;;
15006;SDS011;7599;50.748;13.142;2023-03-01T02:56:59;2.58;;;1.30;;
15006;SDS011;7599;50.748;13.142;2023-03-01T03:00:05;2.88;;;1.35;;
15006;SDS011;7599;50.748;13.142;2023-03-01T03:03:09;2.05;;;1.00;;
15006;SDS011;7599;50.748;13.142;2023-03-01T03:06:12;2.60;;;1.20;;
15006;SDS011;7599;50.748;13.142;2023-03-01T03:09:15;2.67;;;1.13;;
15006;SDS011;7599;50.748;13.142;2023-03-01T03:12:18;3.30;;;1.38;;
15006;SDS011;7599;50.748;13.142;2023-03-01T03:15:22;2.53;;;1.25;;
15006;SDS011;7599;50.748;13.142;2023-03-01T03:18:25;2.30;;;1.20;;
15006;SDS011;7599;50.748;13.142;2023-03-01T03:21:28;3.35;;;1.55;;
15006;SDS011;7599;50.748;13.142;2023-03-01T03:24:30;4.25;;;1.52;;
15006;SDS011;7599;50.748;13.142;2023-03-01T03:27:39;3.15;;;1.10;;
15006;SDS011;7599;50.748;13.142;2023-03-01T03:30:45;3.92;;;1.40;;
15006;SDS011;7599;50.748;13.142;2023-03-01T03:33:47;2.40;;;1.23;;
15006;SDS011;7599;50.748;13.142;2023-03-01T03:36:52;2.38;;;1.13;;
15006;SDS011;7599;50.748;13.142;2023-03-01T03:39:58;2.33;;;1.20;;
15006;SDS011;7599;50.748;13.142;2023-03-01T03:43:00;2.42;;;1.35;;
15006;SDS011;7599;50.748;13.142;2023-03-01T03:46:05;2.85;;;1.00;;
15006;SDS011;7599;50.748;13.142;2023-03-01T03:49:08;2.75;;;1.50;;
15006;SDS011;7599;50.748;13.142;2023-03-01T03:52:11;2.72;;;1.25;;
15006;SDS011;7599;50.748;13.142;2023-03-01T03:55:14;2.63;;;1.40;;
15006;SDS011;7599;50.748;13.142;2023-03-01T03:58:20;2.97;;;1.40;;
15006;SDS011;7599;50.748;13.142;2023-03-01T04:01:26;2.95;;;1.35;;
15006;SDS011;7599;50.748;13.142;2023-03-01T04:04:28;3.55;;;1.33;;
15006;SDS011;7599;50.748;13.142;2023-03-01T04:07:31;2.05;;;1.00;;
15006;SDS011;7599;50.748;13.142;2023-03-01T04:10:34;2.90;;;1.35;;
15006;SDS011;7599;50.748;13.142;2023-03-01T04:13:39;2.40;;;1.13;;
15006;SDS011;7599;50.748;13.142;2023-03-01T04:16:43;3.05;;;1.30;;
15006;SDS011;7599;50.748;13.142;2023-03-01T04:19:45;3.28;;;1.67;;
15006;SDS011;7599;50.748;13.142;2023-03-01T04:22:50;3.35;;;1.30;;
15006;SDS011;7599;50.748;13.142;2023-03-01T04:25:53;2.67;;;1.10;;
15006;SDS011;7599;50.748;13.142;2023-03-01T04:28:57;3.35;;;1.40;;
15006;SDS011;7599;50.748;13.142;2023-03-01T04:32:02;2.92;;;1.33;;
15006;SDS011;7599;50.748;13.142;2023-03-01T04:35:05;4.07;;;1.27;;
15006;SDS011;7599;50.748;13.142;2023-03-01T04:38:08;2.83;;;1.40;;
15006;SDS011;7599;50.748;13.142;2023-03-01T04:41:11;3.25;;;1.33;;
15006;SDS011;7599;50.748;13.142;2023-03-01T04:44:13;1.90;;;1.30;;
15006;SDS011;7599;50.748;13.142;2023-03-01T04:47:17;3.22;;;1.42;;
15006;SDS011;7599;50.748;13.142;2023-03-01T04:50:20;3.40;;;1.30;;
15006;SDS011;7599;50.748;13.142;2023-03-01T04:53:24;2.30;;;1.13;;
15006;SDS011;7599;50.748;13.142;2023-03-01T04:56:26;2.78;;;1.30;;
15006;SDS011;7599;50.748;13.142;2023-03-01T04:59:29;2.95;;;1.48;;
15006;SDS011;7599;50.748;13.142;2023-03-01T05:02:33;3.75;;;1.40;;
15006;SDS011;7599;50.748;13.142;2023-03-01T05:05:37;2.10;;;1.17;;
15006;SDS011;7599;50.748;13.142;2023-03-01T05:08:40;2.67;;;1.40;;
15006;SDS011;7599;50.748;13.142;2023-03-01T05:20:51;2.38;;;1.27;;
15006;SDS011;7599;50.748;13.142;2023-03-01T05:23:59;2.88;;;1.50;;
15006;SDS011;7599;50.748;13.142;2023-03-01T05:27:01;2.90;;;1.20;;
15006;SDS011;7599;50.748;13.142;2023-03-01T05:30:04;2.05;;;1.10;;
15006;SDS011;7599;50.748;13.142;2023-03-01T05:33:16;3.60;;;1.25;;
15006;SDS011;7599;50.748;13.142;2023-03-01T05:36:20;2.97;;;1.50;;
15006;SDS011;7599;50.748;13.142;2023-03-01T05:39:23;2.17;;;1.27;;
15006;SDS011;7599;50.748;13.142;2023-03-01T05:42:27;2.55;;;1.35;;
15006;SDS011;7599;50.748;13.142;2023-03-01T05:45:29;2.92;;;1.40;;
15006;SDS011;7599;50.748;13.142;2023-03-01T05:48:34;4.03;;;1.65;;
15006;SDS011;7599;50.748;13.142;2023-03-01T05:51:37;4.38;;;1.60;;
15006;SDS011;7599;50.748;13.142;2023-03-01T05:54:40;2.17;;;1.10;;
15006;SDS011;7599;50.748;13.142;2023-03-01T05:57:42;4.63;;;1.73;;
15006;SDS011;7599;50.748;13.142;2023-03-01T06:00:46;3.50;;;1.30;;
15006;SDS011;7599;50.748;13.142;2023-03-01T06:03:50;3.53;;;1.42;;
15006;SDS011;7599;50.748;13.142;2023-03-01T06:06:53;3.17;;;1.42;;
15006;SDS011;7599;50.748;13.142;2023-03-01T06:09:55;3.38;;;1.35;;
15006;SDS011;7599;50.748;13.142;2023-03-01T06:12:58;3.25;;;1.50;;
15006;SDS011;7599;50.748;13.142;2023-03-01T06:16:00;3.42;;;1.17;;
15006;SDS011;7599;50.748;13.142;2023-03-01T06:19:04;2.95;;;1.30;;
15006;SDS011;7599;50.748;13.142;2023-03-01T06:22:07;3.95;;;1.55;;
15006;SDS011;7599;50.748;13.142;2023-03-01T06:25:10;3.20;;;1.23;;
15006;SDS011;7599;50.748;13.142;2023-03-01T06:28:13;2.03;;;1.10;;
15006;SDS011;7599;50.748;13.142;2023-03-01T06:31:16;4.93;;;1.52;;
15006;SDS011;7599;50.748;13.142;2023-03-01T06:34:20;7.25;;;2.65;;
15006;SDS011;7599;50.748;13.142;2023-03-01T06:37:22;8.32;;;2.35;;
15006;SDS011;7599;50.748;13.142;2023-03-01T06:40:25;7.32;;;2.42;;
15006;SDS011;7599;50.748;13.142;2023-03-01T06:43:27;4.25;;;1.83;;
15006;SDS011;7599;50.748;13.142;2023-03-01T06:46:30;6.20;;;1.92;;
15006;SDS011;7599;50.748;13.142;2023-03-01T06:49:35;6.47;;;2.40;;
15006;SDS011;7599;50.748;13.142;2023-03-01T06:52:37;6.30;;;2.30;;
15006;SDS011;7599;50.748;13.142;2023-03-01T06:55:40;6.60;;;2.33;;
15006;SDS011;7599;50.748;13.142;2023-03-01T06:58:42;4.82;;;1.80;;
15006;SDS011;7599;50.748;13.142;2023-03-01T07:01:45;6.03;;;1.85;;
15006;SDS011;7599;50.748;13.142;2023-03-01T07:04:49;5.88;;;2.33;;
15006;SDS011;7599;50.748;13.142;2023-03-01T07:07:52;6.53;;;2.00;;
15006;SDS011;7599;50.748;13.142;2023-03-01T07:10:56;6.90;;;2.17;;
15006;SDS011;7599;50.748;13.142;2023-03-01T07:13:58;5.45;;;1.95;;
15006;SDS011;7599;50.748;13.142;2023-03-01T07:17:01;7.97;;;2.03;;
15006;SDS011;7599;50.748;13.142;2023-03-01T07:20:05;4.55;;;1.98;;
15006;SDS011;7599;50.748;13.142;2023-03-01T07:23:08;8.77;;;2.95;;
15006;SDS011;7599;50.748;13.142;2023-03-01T07:26:11;9.30;;;3.33;;
15006;SDS011;7599;50.748;13.142;2023-03-01T07:29:13;11.40;;;2.83;;
15006;SDS011;7599;50.748;13.142;2023-03-01T07:32:16;8.73;;;2.88;;
15006;SDS011;7599;50.748;13.142;2023-03-01T07:35:20;10.10;;;3.08;;
15006;SDS011;7599;50.748;13.142;2023-03-01T07:38:22;9.73;;;2.90;;
15006;SDS011;7599;50.748;13.142;2023-03-01T07:41:24;11.15;;;3.15;;
15006;SDS011;7599;50.748;13.142;2023-03-01T07:44:27;11.77;;;3.72;;
15006;SDS011;7599;50.748;13.142;2023-03-01T07:47:30;9.65;;;3.15;;
15006;SDS011;7599;50.748;13.142;2023-03-01T07:50:34;9.60;;;3.15;;
15006;SDS011;7599;50.748;13.142;2023-03-01T07:53:37;8.80;;;3.55;;
15006;SDS011;7599;50.748;13.142;2023-03-01T07:56:39;9.23;;;3.60;;
15006;SDS011;7599;50.748;13.142;2023-03-01T07:59:42;10.40;;;3.97;;
15006;SDS011;7599;50.748;13.142;2023-03-01T08:02:45;8.07;;;3.38;;
15006;SDS011;7599;50.748;13.142;2023-03-01T08:05:49;7.78;;;4.38;;
15006;SDS011;7599;50.748;13.142;2023-03-01T08:08:51;8.77;;;3.53;;
15006;SDS011;7599;50.748;13.142;2023-03-01T08:11:56;8.30;;;3.50;;
15006;SDS011;7599;50.748;13.142;2023-03-01T08:15:00;7.88;;;3.40;;
15006;SDS011;7599;50.748;13.142;2023-03-01T08:18:02;7.63;;;3.17;;
15006;SDS011;7599;50.748;13.142;2023-03-01T08:21:07;5.72;;;2.90;;
15006;SDS011;7599;50.748;13.142;2023-03-01T08:24:11;7.35;;;3.10;;
15006;SDS011;7599;50.748;13.142;2023-03-01T08:27:14;7.15;;;3.47;;
15006;SDS011;7599;50.748;13.142;2023-03-01T08:30:17;8.68;;;3.42;;
15006;SDS011;7599;50.748;13.142;2023-03-01T08:33:20;7.28;;;2.80;;
15006;SDS011;7599;50.748;13.142;2023-03-01T08:36:24;8.13;;;3.38;;
15006;SDS011;7599;50.748;13.142;2023-03-01T08:39:27;7.82;;;2.85;;
15006;SDS011;7599;50.748;13.142;2023-03-01T08:42:30;6.28;;;2.72;;
15006;SDS011;7599;50.748;13.142;2023-03-01T08:45:32;7.65;;;3.25;;
15006;SDS011;7599;50.748;13.142;2023-03-01T08:48:35;6.60;;;2.85;;
15006;SDS011;7599;50.748;13.142;2023-03-01T08:51:39;6.40;;;2.70;;
15006;SDS011;7599;50.748;13.142;2023-03-01T08:54:42;7.32;;;2.80;;
15006;SDS011;7599;50.748;13.142;2023-03-01T08:57:44;6.90;;;2.70;;
15006;SDS011;7599;50.748;13.142;2023-03-01T09:00:46;6.65;;;2.70;;
15006;SDS011;7599;50.748;13.142;2023-03-01T09:03:49;6.35;;;3.05;;
15006;SDS011;7599;50.748;13.142;2023-03-01T09:06:53;7.32;;;3.17;;
15006;SDS011;7599;50.748;13.142;2023-03-01T09:09:55;7.05;;;2.67;;
15006;SDS011;7599;50.748;13.142;2023-03-01T09:12:57;7.47;;;2.88;;
15006;SDS011;7599;50.748;13.142;2023-03-01T09:16:00;4.97;;;1.77;;
15006;SDS011;7599;50.748;13.142;2023-03-01T09:19:04;6.68;;;2.63;;
15006;SDS011;7599;50.748;13.142;2023-03-01T09:22:08;6.93;;;1.85;;
15006;SDS011;7599;50.748;13.142;2023-03-01T09:25:10;7.20;;;2.13;;
15006;SDS011;7599;50.748;13.142;2023-03-01T09:28:13;6.50;;;2.20;;
15006;SDS011;7599;50.748;13.142;2023-03-01T09:31:29;7.30;;;2.70;;
15006;SDS011;7599;50.748;13.142;2023-03-01T09:34:31;6.60;;;2.20;;
15006;SDS011;7599;50.748;13.142;2023-03-01T09:37:55;6.10;;;2.15;;
15006;SDS011;7599;50.748;13.142;2023-03-01T09:40:58;5.10;;;2.03;;
15006;SDS011;7599;50.748;13.142;2023-03-01T09:44:02;5.30;;;2.08;;
15006;SDS011;7599;50.748;13.142;2023-03-01T09:47:17;6.85;;;2.50;;
15006;SDS011;7599;50.748;13.142;2023-03-01T09:50:21;6.13;;;2.03;;
15006;SDS011;7599;50.748;13.142;2023-03-01T09:53:26;6.13;;;2.08;;
15006;SDS011;7599;50.748;13.142;2023-03-01T09:56:36;7.55;;;2.40;;
15006;SDS011;7599;50.748;13.142;2023-03-01T09:59:45;5.88;;;2.10;;
15006;SDS011;7599;50.748;13.142;2023-03-01T10:02:57;5.55;;;2.03;;
15006;SDS011;7599;50.748;13.142;2023-03-01T10:06:06;5.65;;;2.22;;
15006;SDS011;7599;50.748;13.142;2023-03-01T10:09:34;5.90;;;2.25;;
15006;SDS011;7599;50.748;13.142;2023-03-01T10:12:39;6.57;;;2.00;;
15006;SDS011;7599;50.748;13.142;2023-03-01T10:15:47;7.40;;;2.55;;
15006;SDS011;7599;50.748;13.142;2023-03-01T10:18:58;4.78;;;1.73;;
15006;SDS011;7599;50.748;13.142;2023-03-01T10:22:05;5.07;;;1.70;;
15006;SDS011;7599;50.748;13.142;2023-03-01T10:25:17;5.97;;;2.15;;
15006;SDS011;7599;50.748;13.142;2023-03-01T10:28:36;6.47;;;2.20;;
15006;SDS011;7599;50.748;13.142;2023-03-01T10:31:47;5.15;;;1.80;;
15006;SDS011;7599;50.748;13.142;2023-03-01T10:34:51;5.43;;;2.28;;
15006;SDS011;7599;50.748;13.142;2023-03-01T10:37:58;5.07;;;1.98;;
15006;SDS011;7599;50.748;13.142;2023-03-01T10:41:06;10.85;;;2.55;;
15006;SDS011;7599;50.748;13.142;2023-03-01T10:44:09;5.35;;;2.03;;
15006;SDS011;7599;50.748;13.142;2023-03-01T10:47:42;8.98;;;2.60;;
15006;SDS011;7599;50.748;13.142;2023-03-01T10:50:45;6.00;;;2.17;;
15006;SDS011;7599;50.748;13.142;2023-03-01T10:53:49;7.50;;;2.38;;
15006;SDS011;7599;50.748;13.142;2023-03-01T10:56:54;14.57;;;2.33;;
15006;SDS011;7599;50.748;13.142;2023-03-01T11:00:02;8.40;;;2.47;;
15006;SDS011;7599;50.748;13.142;2023-03-01T11:03:21;6.95;;;2.15;;
15006;SDS011;7599;50.748;13.142;2023-03-01T11:06:25;5.68;;;2.33;;
15006;SDS011;7599;50.748;13.142;2023-03-01T11:09:30;7.28;;;2.30;;
15006;SDS011;7599;50.748;13.142;2023-03-01T11:12:39;6.00;;;2.65;;
15006;SDS011;7599;50.748;13.142;2023-03-01T11:15:42;4.78;;;2.05;;
15006;SDS011;7599;50.748;13.142;2023-03-01T11:18:45;6.75;;;2.33;;
15006;SDS011;7599;50.748;13.142;2023-03-01T11:22:00;5.47;;;1.92;;
15006;SDS011;7599;50.748;13.142;2023-03-01T11:25:07;7.50;;;2.63;;
15006;SDS011;7599;50.748;13.142;2023-03-01T11:28:17;6.88;;;2.33;;
15006;SDS011;7599;50.748;13.142;2023-03-01T11:31:22;7.20;;;2.38;;
15006;SDS011;7599;50.748;13.142;2023-03-01T11:34:32;6.88;;;1.65;;
15006;SDS011;7599;50.748;13.142;2023-03-01T11:37:43;5.88;;;1.90;;
15006;SDS011;7599;50.748;13.142;2023-03-01T11:40:54;5.57;;;2.22;;
15006;SDS011;7599;50.748;13.142;2023-03-01T11:44:03;4.75;;;1.85;;
15006;SDS011;7599;50.748;13.142;2023-03-01T11:47:22;5.50;;;2.03;;
15006;SDS011;7599;50.748;13.142;2023-03-01T11:50:34;5.78;;;2.22;;
15006;SDS011;7599;50.748;13.142;2023-03-01T11:53:48;5.28;;;1.85;;
15006;SDS011;7599;50.748;13.142;2023-03-01T11:57:00;6.05;;;1.70;;
15006;SDS011;7599;50.748;13.142;2023-03-01T12:00:20;6.18;;;2.35;;
15006;SDS011;7599;50.748;13.142;2023-03-01T12:03:49;6.28;;;2.35;;
15006;SDS011;7599;50.748;13.142;2023-03-01T12:07:10;4.68;;;1.83;;
15006;SDS011;7599;50.748;13.142;2023-03-01T12:10:22;3.95;;;1.70;;
15006;SDS011;7599;50.748;13.142;2023-03-01T12:13:36;5.55;;;1.70;;
15006;SDS011;7599;50.748;13.142;2023-03-01T12:17:03;4.82;;;1.95;;
15006;SDS011;7599;50.748;13.142;2023-03-01T12:20:28;4.93;;;1.83;;
15006;SDS011;7599;50.748;13.142;2023-03-01T12:27:11;4.82;;;1.70;;
15006;SDS011;7599;50.748;13.142;2023-03-01T12:30:25;5.57;;;1.95;;
15006;SDS011;7599;50.748;13.142;2023-03-01T12:33:41;5.93;;;2.25;;
15006;SDS011;7599;50.748;13.142;2023-03-01T12:37:01;5.90;;;2.10;;
15006;SDS011;7599;50.748;13.142;2023-03-01T12:40:28;5.13;;;1.95;;
15006;SDS011;7599;50.748;13.142;2023-03-01T12:43:39;5.63;;;2.08;;
15006;SDS011;7599;50.748;13.142;2023-03-01T12:46:52;5.15;;;1.88;;
15006;SDS011;7599;50.748;13.142;2023-03-01T12:50:10;5.15;;;1.77;;
15006;SDS011;7599;50.748;13.142;2023-03-01T12:53:21;4.78;;;1.90;;
15006;SDS011;7599;50.748;13.142;2023-03-01T12:56:26;6.20;;;2.13;;
15006;SDS011;7599;50.748;13.142;2023-03-01T12:59:32;5.68;;;1.80;;
15006;SDS011;7599;50.748;13.142;2023-03-01T13:02:41;5.30;;;1.83;;
15006;SDS011;7599;50.748;13.142;2023-03-01T13:05:55;4.75;;;1.98;;
15006;SDS011;7599;50.748;13.142;2023-03-01T13:09:11;5.53;;;1.70;;
15006;SDS011;7599;50.748;13.142;2023-03-01T13:15:44;4.85;;;2.15;;
15006;SDS011;7599;50.748;13.142;2023-03-01T13:18:48;4.47;;;1.70;;
15006;SDS011;7599;50.748;13.142;2023-03-01T13:21:53;5.38;;;1.80;;
15006;SDS011;7599;50.748;13.142;2023-03-01T13:25:03;5.95;;;2.22;;
15006;SDS011;7599;50.748;13.142;2023-03-01T13:35:01;7.05;;;2.53;;
15006;SDS011;7599;50.748;13.142;2023-03-01T13:41:49;8.25;;;2.63;;
15006;SDS011;7599;50.748;13.142;2023-03-01T13:44:53;7.13;;;2.45;;
15006;SDS011;7599;50.748;13.142;2023-03-01T13:47:57;9.48;;;2.83;;
15006;SDS011;7599;50.748;13.142;2023-03-01T13:51:03;7.10;;;2.25;;
15006;SDS011;7599;50.748;13.142;2023-03-01T13:54:09;6.57;;;2.72;;
15006;SDS011;7599;50.748;13.142;2023-03-01T13:57:18;6.72;;;2.65;;
15006;SDS011;7599;50.748;13.142;2023-03-01T14:00:31;6.25;;;2.28;;
15006;SDS011;7599;50.748;13.142;2023-03-01T14:03:40;6.57;;;2.33;;
15006;SDS011;7599;50.748;13.142;2023-03-01T14:06:43;6.22;;;2.20;;
15006;SDS011;7599;50.748;13.142;2023-03-01T14:09:47;6.50;;;2.28;;
15006;SDS011;7599;50.748;13.142;2023-03-01T14:12:54;6.50;;;2.28;;
15006;SDS011;7599;50.748;13.142;2023-03-01T14:16:19;6.22;;;2.33;;
15006;SDS011;7599;50.748;13.142;2023-03-01T14:19:33;5.57;;;2.22;;
15006;SDS011;7599;50.748;13.142;2023-03-01T14:22:36;6.85;;;2.33;;
15006;SDS011;7599;50.748;13.142;2023-03-01T14:25:46;5.95;;;2.25;;
15006;SDS011;7599;50.748;13.142;2023-03-01T14:28:51;5.82;;;2.13;;
15006;SDS011;7599;50.748;13.142;2023-03-01T14:31:54;5.63;;;2.03;;
15006;SDS011;7599;50.748;13.142;2023-03-01T14:34:57;6.55;;;2.35;;
15006;SDS011;7599;50.748;13.142;2023-03-01T14:38:01;6.25;;;2.40;;
15006;SDS011;7599;50.748;13.142;2023-03-01T14:41:06;6.35;;;2.00;;
15006;SDS011;7599;50.748;13.142;2023-03-01T14:44:14;4.75;;;1.80;;
15006;SDS011;7599;50.748;13.142;2023-03-01T14:47:26;6.90;;;2.45;;
15006;SDS011;7599;50.748;13.142;2023-03-01T14:50:30;6.07;;;2.40;;
15006;SDS011;7599;50.748;13.142;2023-03-01T14:53:34;7.13;;;2.35;;
15006;SDS011;7599;50.748;13.142;2023-03-01T14:56:50;5.88;;;2.85;;
15006;SDS011;7599;50.748;13.142;2023-03-01T14:59:57;5.95;;;2.38;;
15006;SDS011;7599;50.748;13.142;2023-03-01T15:03:02;5.93;;;2.13;;
15006;SDS011;7599;50.748;13.142;2023-03-01T15:06:15;5.32;;;2.17;;
15006;SDS011;7599;50.748;13.142;2023-03-01T15:09:19;5.30;;;2.03;;
15006;SDS011;7599;50.748;13.142;2023-03-01T15:12:34;6.72;;;2.35;;
15006;SDS011;7599;50.748;13.142;2023-03-01T15:15:39;6.70;;;1.88;;
15006;SDS011;7599;50.748;13.142;2023-03-01T15:18:45;5.90;;;2.28;;
15006;SDS011;7599;50.748;13.142;2023-03-01T15:21:49;6.05;;;2.08;;
15006;SDS011;7599;50.748;13.142;2023-03-01T15:24:52;6.07;;;2.53;;
15006;SDS011;7599;50.748;13.142;2023-03-01T15:27:56;4.95;;;2.17;;
15006;SDS011;7599;50.748;13.142;2023-03-01T15:31:02;6.60;;;2.75;;
15006;SDS011;7599;50.748;13.142;2023-03-01T15:34:21;6.05;;;2.22;;
15006;SDS011;7599;50.748;13.142;2023-03-01T15:37:36;4.70;;;1.73;;
15006;SDS011;7599;50.748;13.142;2023-03-01T15:40:48;5.55;;;2.45;;
15006;SDS011;7599;50.748;13.142;2023-03-01T15:43:51;5.60;;;1.92;;
15006;SDS011;7599;50.748;13.142;2023-03-01T15:46:57;5.22;;;2.20;;
15006;SDS011;7599;50.748;13.142;2023-03-01T15:50:00;5.38;;;1.98;;
15006;SDS011;7599;50.748;13.142;2023-03-01T15:56:07;5.32;;;1.88;;
15006;SDS011;7599;50.748;13.142;2023-03-01T15:59:11;5.90;;;2.15;;
15006;SDS011;7599;50.748;13.142;2023-03-01T16:02:16;9.38;;;2.72;;
15006;SDS011;7599;50.748;13.142;2023-03-01T16:05:22;7.47;;;2.78;;
15006;SDS011;7599;50.748;13.142;2023-03-01T16:08:27;7.30;;;2.55;;
15006;SDS011;7599;50.748;13.142;2023-03-01T16:11:30;6.72;;;2.90;;
15006;SDS011;7599;50.748;13.142;2023-03-01T16:14:33;8.52;;;2.45;;
15006;SDS011;7599;50.748;13.142;2023-03-01T16:17:37;7.38;;;2.50;;
15006;SDS011;7599;50.748;13.142;2023-03-01T16:20:39;7.10;;;2.38;;
15006;SDS011;7599;50.748;13.142;2023-03-01T16:23:42;7.07;;;2.85;;
15006;SDS011;7599;50.748;13.142;2023-03-01T16:26:45;6.50;;;2.45;;
15006;SDS011;7599;50.748;13.142;2023-03-01T16:29:48;5.45;;;2.10;;
15006;SDS011;7599;50.748;13.142;2023-03-01T16:32:52;9.77;;;2.25;;
15006;SDS011;7599;50.748;13.142;2023-03-01T16:35:54;7.03;;;2.55;;
15006;SDS011;7599;50.748;13.142;2023-03-01T16:38:57;4.63;;;2.00;;
15006;SDS011;7599;50.748;13.142;2023-03-01T16:42:01;8.15;;;2.75;;
15006;SDS011;7599;50.748;13.142;2023-03-01T16:45:04;6.65;;;2.10;;
15006;SDS011;7599;50.748;13.142;2023-03-01T16:48:24;6.70;;;2.15;;
15006;SDS011;7599;50.748;13.142;2023-03-01T16:51:26;6.78;;;2.33;;
15006;SDS011;7599;50.748;13.142;2023-03-01T16:54:31;7.32;;;2.33;;
15006;SDS011;7599;50.748;13.142;2023-03-01T16:57:34;11.95;;;2.55;;
15006;SDS011;7599;50.748;13.142;2023-03-01T17:00:36;6.70;;;2.58;;
15006;SDS011;7599;50.748;13.142;2023-03-01T17:03:40;5.68;;;1.80;;
15006;SDS011;7599;50.748;13.142;2023-03-01T17:06:43;6.07;;;2.30;;
15006;SDS011;7599;50.748;13.142;2023-03-01T17:09:47;8.55;;;2.55;;
15006;SDS011;7599;50.748;13.142;2023-03-01T17:12:50;5.57;;;2.10;;
15006;SDS011;7599;50.748;13.142;2023-03-01T17:15:52;6.80;;;2.35;;
15006;SDS011;7599;50.748;13.142;2023-03-01T17:18:56;5.13;;;2.15;;
15006;SDS011;7599;50.748;13.142;2023-03-01T17:21:59;5.43;;;2.22;;
15006;SDS011;7599;50.748;13.142;2023-03-01T17:25:01;7.20;;;2.33;;
15006;SDS011;7599;50.748;13.142;2023-03-01T17:28:04;6.32;;;2.30;;
15006;SDS011;7599;50.748;13.142;2023-03-01T17:31:07;8.07;;;2.25;;
15006;SDS011;7599;50.748;13.142;2023-03-01T17:34:10;5.55;;;2.42;;
15006;SDS011;7599;50.748;13.142;2023-03-01T17:37:13;8.27;;;2.13;;
15006;SDS011;7599;50.748;13.142;2023-03-01T17:40:15;7.00;;;2.03;;
15006;SDS011;7599;50.748;13.142;2023-03-01T17:43:18;6.15;;;2.05;;
15006;SDS011;7599;50.748;13.142;2023-03-01T17:46:21;6.53;;;2.30;;
15006;SDS011;7599;50.748;13.142;2023-03-01T17:49:26;5.18;;;1.92;;
15006;SDS011;7599;50.748;13.142;2023-03-01T17:52:29;6.57;;;2.10;;
15006;SDS011;7599;50.748;13.142;2023-03-01T17:55:31;7.10;;;2.25;;
15006;SDS011;7599;50.748;13.142;2023-03-01T17:58:34;5.53;;;2.25;;
15006;SDS011;7599;50.748;13.142;2023-03-01T18:01:36;6.45;;;2.40;;
15006;SDS011;7599;50.748;13.142;2023-03-01T18:04:40;6.45;;;2.45;;
15006;SDS011;7599;50.748;13.142;2023-03-01T18:07:44;6.55;;;2.38;;
15006;SDS011;7599;50.748;13.142;2023-03-01T18:10:46;7.80;;;2.53;;
15006;SDS011;7599;50.748;13.142;2023-03-01T18:13:48;6.28;;;2.50;;
15006;SDS011;7599;50.748;13.142;2023-03-01T18:16:51;7.13;;;2.33;;
15006;SDS011;7599;50.748;13.142;2023-03-01T18:19:55;6.40;;;2.35;;
15006;SDS011;7599;50.748;13.142;2023-03-01T18:22:59;7.60;;;2.40;;
15006;SDS011;7599;50.748;13.142;2023-03-01T18:26:02;5.70;;;2.42;;
15006;SDS011;7599;50.748;13.142;2023-03-01T18:29:06;6.65;;;2.28;;
15006;SDS011;7599;50.748;13.142;2023-03-01T18:32:10;6.05;;;2.22;;
15006;SDS011;7599;50.748;13.142;2023-03-01T18:35:14;7.00;;;2.28;;
15006;SDS011;7599;50.748;13.142;2023-03-01T18:38:16;5.32;;;2.00;;
15006;SDS011;7599;50.748;13.142;2023-03-01T18:41:19;6.57;;;2.42;;
15006;SDS011;7599;50.748;13.142;2023-03-01T18:44:22;4.97;;;2.15;;
15006;SDS011;7599;50.748;13.142;2023-03-01T18:47:24;5.60;;;2.38;;
15006;SDS011;7599;50.748;13.142;2023-03-01T18:50:28;5.05;;;2.00;;
15006;SDS011;7599;50.748;13.142;2023-03-01T18:53:30;6.78;;;2.50;;
15006;SDS011;7599;50.748;13.142;2023-03-01T18:56:33;5.43;;;2.00;;
15006;SDS011;7599;50.748;13.142;2023-03-01T18:59:36;5.40;;;2.20;;
15006;SDS011;7599;50.748;13.142;2023-03-01T19:02:38;5.10;;;1.83;;
15006;SDS011;7599;50.748;13.142;2023-03-01T19:05:42;6.18;;;2.00;;
15006;SDS011;7599;50.748;13.142;2023-03-01T19:08:45;5.40;;;2.22;;
15006;SDS011;7599;50.748;13.142;2023-03-01T19:11:48;4.80;;;1.90;;
15006;SDS011;7599;50.748;13.142;2023-03-01T19:14:50;5.50;;;2.15;;